createdAt,value
2018-12-19T00:01:52.985Z,91.70
2018-12-19T00:04:22.833Z,92.62
2018-12-19T00:06:53.151Z,91.96
2018-12-19T00:09:20.405Z,92.58
2018-12-19T00:11:50.105Z,93.06
2018-12-19T00:14:17.429Z,92.30
2018-12-19T00:16:48.777Z,92.52
2018-12-19T00:19:19.760Z,92.60
2018-12-19T00:21:49.051Z,93.18
2018-12-19T00:24:16.906Z,92.04
2018-12-19T00:26:48.519Z,92.03
2018-12-19T00:29:18.055Z,91.47
2018-12-19T00:32:02.298Z,92.80
2018-12-19T00:34:34.228Z,92.59
2018-12-19T00:37:07.950Z,91.62
2018-12-19T00:39:35.477Z,91.20
2018-12-19T00:42:02.737Z,92.24
2018-12-19T00:44:29.956Z,91.62
2018-12-19T00:47:04.316Z,92.12
2018-12-19T00:49:31.576Z,92.93
2018-12-19T00:51:58.828Z,91.87
2018-12-19T00:54:26.053Z,92.33
2018-12-19T00:56:53.936Z,92.59
2018-12-19T00:59:21.174Z,92.34
2018-12-19T01:01:48.435Z,92.67
2018-12-19T01:04:15.665Z,92.25
2018-12-19T01:06:43.613Z,92.06
2018-12-19T01:09:15.886Z,92.16
2018-12-19T01:11:40.384Z,91.47
2018-12-19T01:14:09.710Z,92.93
2018-12-19T01:16:38.046Z,91.86
2018-12-19T01:19:06.325Z,91.66
2018-12-19T01:21:33.984Z,91.82
2018-12-19T01:24:01.249Z,91.40
2018-12-19T01:26:28.597Z,91.75
2018-12-19T01:28:55.848Z,92.91
2018-12-19T01:31:24.070Z,92.76
2018-12-19T01:33:52.356Z,92.77
2018-12-19T01:36:20.556Z,92.37
2018-12-19T01:38:50.049Z,91.55
2018-12-19T01:41:17.324Z,91.25
2018-12-19T01:43:44.564Z,92.49
2018-12-19T01:46:11.937Z,92.23
2018-12-19T01:48:39.156Z,92.33
2018-12-19T01:51:07.606Z,91.30
2018-12-19T01:53:34.970Z,92.36
2018-12-19T01:56:02.344Z,92.66
2018-12-19T01:58:29.624Z,92.30
2018-12-19T02:00:56.945Z,91.62
2018-12-19T02:03:27.692Z,92.68
2018-12-19T02:05:56.981Z,92.57
2018-12-19T02:08:24.316Z,92.18
2018-12-19T02:10:51.564Z,91.38
2018-12-19T02:13:18.787Z,91.94
2018-12-19T02:15:46.092Z,91.11
2018-12-19T02:18:16.197Z,91.33
2018-12-19T02:20:43.523Z,91.16
2018-12-19T02:23:10.780Z,90.30
2018-12-19T02:25:38.219Z,90.34
2018-12-19T02:28:06.565Z,89.83
2018-12-19T02:30:50.953Z,89.83
2018-12-19T02:33:18.308Z,89.69
2018-12-19T02:35:45.640Z,89.90
2018-12-19T02:38:14.120Z,89.67
2018-12-19T02:40:41.452Z,89.93
2018-12-19T02:43:08.762Z,89.49
2018-12-19T02:45:36.041Z,89.63
2018-12-19T02:48:03.283Z,88.98
2018-12-19T02:50:30.508Z,88.41
2018-12-19T02:52:57.822Z,89.18
2018-12-19T02:55:25.045Z,87.11
2018-12-19T02:57:53.388Z,87.06
2018-12-19T03:00:20.633Z,86.83
2018-12-19T03:02:47.894Z,87.50
2018-12-19T03:05:15.261Z,86.74
2018-12-19T03:07:42.536Z,87.39
2018-12-19T03:10:09.928Z,86.09
2018-12-19T03:12:37.264Z,86.77
2018-12-19T03:15:04.797Z,87.12
2018-12-19T03:17:35.279Z,86.64
2018-12-19T03:20:02.660Z,86.42
2018-12-19T03:22:30.062Z,86.93
2018-12-19T03:24:57.314Z,87.00
2018-12-19T03:27:24.601Z,86.52
2018-12-19T03:29:51.834Z,87.03
2018-12-19T03:32:19.234Z,86.07
2018-12-19T03:34:46.448Z,86.50
2018-12-19T03:37:13.690Z,85.91
2018-12-19T03:39:40.908Z,85.87
2018-12-19T03:42:08.132Z,86.54
2018-12-19T03:44:35.364Z,85.54
2018-12-19T03:47:02.640Z,85.69
2018-12-19T03:49:30.201Z,84.77
2018-12-19T03:51:57.469Z,85.87
2018-12-19T03:54:25.249Z,86.56
2018-12-19T03:56:52.893Z,85.92
2018-12-19T03:59:20.128Z,86.89
2018-12-19T04:01:47.372Z,85.16
2018-12-19T04:04:14.598Z,85.48
2018-12-19T04:06:42.876Z,85.42
2018-12-19T04:09:10.105Z,86.50
2018-12-19T04:11:37.346Z,85.13
2018-12-19T04:14:05.735Z,85.75
2018-12-19T04:16:32.971Z,85.71
2018-12-19T04:19:00.269Z,85.68
2018-12-19T04:21:30.676Z,84.77
2018-12-19T04:23:57.913Z,85.44
2018-12-19T04:26:26.141Z,84.67
2018-12-19T04:28:53.467Z,85.38
2018-12-19T04:31:21.829Z,84.40
2018-12-19T04:33:49.058Z,85.71
2018-12-19T04:36:16.447Z,86.05
2018-12-19T04:38:44.016Z,85.29
2018-12-19T04:41:11.492Z,85.65
2018-12-19T04:43:38.864Z,84.62
2018-12-19T04:46:06.080Z,84.10
2018-12-19T04:48:33.300Z,84.37
2018-12-19T04:51:00.580Z,86.32
2018-12-19T04:53:27.901Z,84.87
2018-12-19T04:55:55.140Z,85.19
2018-12-19T04:58:22.361Z,85.05
2018-12-19T05:00:49.597Z,85.17
2018-12-19T05:03:16.837Z,85.69
2018-12-19T05:05:44.062Z,85.55
2018-12-19T05:08:11.280Z,85.21
2018-12-19T05:10:40.507Z,86.03
2018-12-19T05:13:07.711Z,85.81
2018-12-19T05:15:35.929Z,86.22
2018-12-19T05:18:03.210Z,85.45
2018-12-19T05:20:30.446Z,85.58
2018-12-19T05:22:57.692Z,85.44
2018-12-19T05:25:24.941Z,85.51
2018-12-19T05:27:52.204Z,85.88
2018-12-19T05:30:20.479Z,84.71
2018-12-19T05:32:47.821Z,85.65
2018-12-19T05:35:16.049Z,85.54
2018-12-19T05:37:43.304Z,86.23
2018-12-19T05:40:10.548Z,85.33
2018-12-19T05:42:37.776Z,84.14
2018-12-19T05:45:06.848Z,85.27
2018-12-19T05:47:34.346Z,84.41
2018-12-19T05:50:14.526Z,85.19
2018-12-19T05:52:42.068Z,84.57
2018-12-19T05:55:09.336Z,85.25
2018-12-19T05:57:36.739Z,85.01
2018-12-19T06:00:07.015Z,84.40
2018-12-19T06:02:35.372Z,83.96
2018-12-19T06:05:18.372Z,84.33
2018-12-19T06:07:45.669Z,83.27
2018-12-19T06:10:14.004Z,83.62
2018-12-19T06:12:41.477Z,83.63
2018-12-19T06:15:08.905Z,83.71
2018-12-19T06:17:36.184Z,83.25
2018-12-19T06:20:04.942Z,83.52
2018-12-19T06:22:33.387Z,83.72
2018-12-19T06:25:05.228Z,83.25
2018-12-19T06:27:33.685Z,82.60
2018-12-19T06:30:00.950Z,82.56
2018-12-19T06:32:28.260Z,82.30
2018-12-19T06:34:55.544Z,82.78
2018-12-19T06:37:23.862Z,82.52
2018-12-19T06:39:51.206Z,82.31
2018-12-19T06:42:18.498Z,82.01
2018-12-19T06:44:47.884Z,82.13
2018-12-19T06:47:16.284Z,82.59
2018-12-19T06:49:44.589Z,81.62
2018-12-19T06:52:12.867Z,81.96
2018-12-19T06:54:40.232Z,82.51
2018-12-19T06:57:07.515Z,83.03
2018-12-19T06:59:34.876Z,81.25
2018-12-19T07:02:02.392Z,81.60
2018-12-19T07:04:29.644Z,81.25
2018-12-19T07:06:57.124Z,81.81
2018-12-19T07:09:24.479Z,81.56
2018-12-19T07:11:51.779Z,81.39
2018-12-19T07:14:21.148Z,81.24
2018-12-19T07:16:49.476Z,81.28
2018-12-19T07:19:18.756Z,81.31
2018-12-19T07:21:46.049Z,81.95
2018-12-19T07:24:16.116Z,81.14
2018-12-19T07:29:16.323Z,80.79
2018-12-19T07:31:44.380Z,82.02
2018-12-19T07:34:12.876Z,80.93
2018-12-19T07:36:40.129Z,81.95
2018-12-19T07:39:07.670Z,81.17
2018-12-19T07:41:34.968Z,81.11
2018-12-19T07:44:02.233Z,81.82
2018-12-19T07:46:30.536Z,81.57
2018-12-19T07:48:57.817Z,80.56
2018-12-19T07:51:25.052Z,81.58
2018-12-19T07:53:53.492Z,82.04
2018-12-19T07:56:20.746Z,81.87
2018-12-19T07:58:48.012Z,81.33
2018-12-19T08:01:15.297Z,81.32
2018-12-19T08:03:42.556Z,81.40
2018-12-19T08:06:09.812Z,80.17
2018-12-19T08:08:37.060Z,80.58
2018-12-19T08:11:04.309Z,81.01
2018-12-19T08:13:31.553Z,80.84
2018-12-19T08:15:58.800Z,81.24
2018-12-19T08:18:26.187Z,80.46
2018-12-19T08:20:53.550Z,80.27
2018-12-19T08:23:21.872Z,80.14
2018-12-19T08:25:50.290Z,79.97
2018-12-19T08:28:17.567Z,80.83
2018-12-19T08:30:44.845Z,80.51
2018-12-19T08:33:12.108Z,80.04
2018-12-19T08:35:39.349Z,79.50
2018-12-19T08:38:07.648Z,81.01
2018-12-19T08:40:34.892Z,80.32
2018-12-19T08:43:02.278Z,79.48
2018-12-19T08:45:30.140Z,79.86
2018-12-19T08:47:57.492Z,79.70
2018-12-19T08:50:26.764Z,78.72
2018-12-19T08:52:54.042Z,80.01
2018-12-19T08:55:21.372Z,79.64
2018-12-19T08:57:48.757Z,79.38
2018-12-19T09:00:16.017Z,78.73
2018-12-19T09:02:43.306Z,78.94
2018-12-19T09:05:10.549Z,78.36
2018-12-19T09:07:43.602Z,78.39
2018-12-19T09:10:10.892Z,78.69
2018-12-19T09:12:38.117Z,78.75
2018-12-19T09:15:06.382Z,78.74
2018-12-19T09:17:33.814Z,77.78
2018-12-19T09:20:03.709Z,77.74
2018-12-19T09:22:30.990Z,77.85
2018-12-19T09:24:58.473Z,77.94
2018-12-19T09:27:25.713Z,78.97
2018-12-19T09:29:53.029Z,77.83
2018-12-19T09:32:21.378Z,77.41
2018-12-19T09:34:48.634Z,78.02
2018-12-19T09:37:16.011Z,78.28
2018-12-19T09:39:43.272Z,78.37
2018-12-19T09:42:10.518Z,79.24
2018-12-19T09:44:37.804Z,77.64
2018-12-19T09:47:05.061Z,78.08
2018-12-19T09:49:32.350Z,78.51
2018-12-19T09:51:59.624Z,78.52
2018-12-19T09:54:26.860Z,77.36
2018-12-19T09:56:54.096Z,76.94
2018-12-19T09:59:21.348Z,77.38
2018-12-19T10:01:48.688Z,77.94
2018-12-19T10:04:15.926Z,76.90
2018-12-19T10:09:36.913Z,77.51
2018-12-19T10:12:04.208Z,77.33
2018-12-19T10:14:31.478Z,76.75
2018-12-19T10:16:58.825Z,78.07
2018-12-19T10:19:26.064Z,78.22
2018-12-19T10:21:53.316Z,78.16
2018-12-19T10:24:23.254Z,77.70
2018-12-19T10:26:50.550Z,76.99
2018-12-19T10:29:18.846Z,77.36
2018-12-19T10:31:46.263Z,77.22
2018-12-19T10:34:16.852Z,76.80
2018-12-19T10:36:44.096Z,77.20
2018-12-19T10:39:15.808Z,76.56
2018-12-19T10:41:43.067Z,77.52
2018-12-19T10:44:10.644Z,77.31
2018-12-19T10:46:39.245Z,76.73
2018-12-19T10:49:07.620Z,77.40
2018-12-19T10:51:34.911Z,78.17
2018-12-19T10:54:02.209Z,77.77
2018-12-19T10:56:29.511Z,77.21
2018-12-19T10:58:56.781Z,77.77
2018-12-19T11:01:24.057Z,77.16
2018-12-19T11:03:51.318Z,77.91
2018-12-19T11:06:18.584Z,77.71
2018-12-19T11:08:45.900Z,78.90
2018-12-19T11:11:13.156Z,78.54
2018-12-19T11:13:40.413Z,78.99
2018-12-19T11:16:08.706Z,79.17
2018-12-19T11:18:35.945Z,79.17
2018-12-19T11:21:03.425Z,79.77
2018-12-19T11:23:30.816Z,78.97
2018-12-19T11:25:58.064Z,78.97
2018-12-19T11:28:25.304Z,78.90
2018-12-19T11:30:53.569Z,79.33
2018-12-19T11:33:20.921Z,79.41
2018-12-19T11:35:48.974Z,79.27
2018-12-19T11:38:16.257Z,79.68
2018-12-19T11:40:43.529Z,78.13
2018-12-19T11:43:10.766Z,79.27
2018-12-19T11:45:38.060Z,79.87
2018-12-19T11:48:05.300Z,79.92
2018-12-19T11:50:32.560Z,79.91
2018-12-19T11:52:59.832Z,80.58
2018-12-19T11:55:27.593Z,82.10
2018-12-19T11:57:54.876Z,81.65
2018-12-19T12:00:22.111Z,81.59
2018-12-19T12:02:49.350Z,81.87
2018-12-19T12:05:16.808Z,82.51
2018-12-19T12:07:46.048Z,82.30
2018-12-19T12:10:13.332Z,82.47
2018-12-19T12:12:40.676Z,82.32
2018-12-19T12:15:08.997Z,82.71
2018-12-19T12:17:36.370Z,81.99
2018-12-19T12:20:05.513Z,83.12
2018-12-19T12:22:32.761Z,82.86
2018-12-19T12:25:00.022Z,83.61
2018-12-19T12:27:28.396Z,81.82
2018-12-19T12:29:57.740Z,83.20
2018-12-19T12:32:26.224Z,82.98
2018-12-19T12:34:53.629Z,83.00
2018-12-19T12:37:20.886Z,84.17
2018-12-19T12:39:48.248Z,83.62
2018-12-19T12:42:16.648Z,83.70
2018-12-19T12:44:44.367Z,84.72
2018-12-19T12:47:12.185Z,85.65
2018-12-19T12:49:39.641Z,85.99
2018-12-19T12:52:06.934Z,85.73
2018-12-19T12:54:34.532Z,86.97
2018-12-19T12:57:03.054Z,87.21
2018-12-19T12:59:30.566Z,87.22
2018-12-19T13:01:57.821Z,87.94
2018-12-19T13:04:25.111Z,88.41
2018-12-19T13:06:52.432Z,87.07
2018-12-19T13:09:19.709Z,88.39
2018-12-19T13:11:47.004Z,88.78
2018-12-19T13:14:16.736Z,88.42
2018-12-19T13:16:43.983Z,89.19
2018-12-19T13:19:11.246Z,88.70
2018-12-19T13:21:42.051Z,88.90
2018-12-19T13:24:11.424Z,88.43
2018-12-19T13:26:38.857Z,88.94
2018-12-19T13:29:06.111Z,89.89
2018-12-19T13:31:37.436Z,89.54
2018-12-19T13:34:05.756Z,90.02
2018-12-19T13:36:33.054Z,89.34
2018-12-19T13:39:01.325Z,90.44
2018-12-19T13:41:30.729Z,90.46
2018-12-19T13:43:57.952Z,90.16
2018-12-19T13:46:25.573Z,89.85
2018-12-19T13:48:52.838Z,89.80
2018-12-19T13:51:20.176Z,89.95
2018-12-19T13:53:47.531Z,89.04
2018-12-19T13:56:14.792Z,89.93
2018-12-19T13:58:42.584Z,89.72
2018-12-19T14:01:09.906Z,90.35
2018-12-19T14:03:37.384Z,90.82
2018-12-19T14:06:04.790Z,89.78
2018-12-19T14:08:32.177Z,89.63
2018-12-19T14:11:00.551Z,90.96
2018-12-19T14:13:27.797Z,91.57
2018-12-19T14:15:55.041Z,91.27
2018-12-19T14:18:22.325Z,91.10
2018-12-19T14:20:49.553Z,92.36
2018-12-19T14:23:16.780Z,92.65
2018-12-19T14:25:43.993Z,91.82
2018-12-19T14:28:11.232Z,92.38
2018-12-19T14:30:39.008Z,92.78
2018-12-19T14:33:07.277Z,92.67
2018-12-19T14:35:34.521Z,92.35
2018-12-19T14:38:02.816Z,92.35
2018-12-19T14:40:35.192Z,92.10
2018-12-19T14:43:04.448Z,93.65
2018-12-19T14:45:31.921Z,93.21
2018-12-19T14:47:59.284Z,93.80
2018-12-19T14:50:27.543Z,92.90
2018-12-19T14:52:54.797Z,91.28
2018-12-19T14:55:26.981Z,93.80
2018-12-19T14:57:54.366Z,94.24
2018-12-19T15:00:21.760Z,94.81
2018-12-19T15:02:49.140Z,94.87
2018-12-19T15:05:16.385Z,93.52
2018-12-19T15:07:44.672Z,94.09
2018-12-19T15:10:11.912Z,94.96
2018-12-19T15:12:39.283Z,95.40
2018-12-19T15:15:08.378Z,95.93
2018-12-19T15:17:36.700Z,95.37
2018-12-19T15:20:04.785Z,95.77
2018-12-19T15:22:32.087Z,95.45
2018-12-19T15:24:59.469Z,96.27
2018-12-19T15:27:26.723Z,96.68
2018-12-19T15:29:53.973Z,95.75
2018-12-19T15:32:22.308Z,96.39
2018-12-19T15:34:49.546Z,95.35
2018-12-19T15:37:17.845Z,96.13
2018-12-19T15:39:45.097Z,96.33
2018-12-19T15:42:12.341Z,96.13
2018-12-19T15:44:39.582Z,95.58
2018-12-19T15:47:06.824Z,95.51
2018-12-19T15:49:34.069Z,96.01
2018-12-19T15:52:01.332Z,95.85
2018-12-19T15:54:29.628Z,95.60
2018-12-19T15:56:56.871Z,95.15
2018-12-19T15:59:24.133Z,95.09
2018-12-19T16:01:51.426Z,94.69
2018-12-19T16:04:18.700Z,95.41
2018-12-19T16:07:02.856Z,95.69
2018-12-19T16:09:30.059Z,95.32
2018-12-19T16:11:57.299Z,95.06
2018-12-19T16:14:24.505Z,93.70
2018-12-19T16:16:51.740Z,94.23
2018-12-19T16:19:18.965Z,94.32
2018-12-19T16:21:46.188Z,94.22
2018-12-19T16:24:13.388Z,94.33
2018-12-19T16:26:40.600Z,94.93
2018-12-19T16:29:08.826Z,94.86
2018-12-19T16:31:36.064Z,94.81
2018-12-19T16:34:03.279Z,93.46
2018-12-19T16:36:30.508Z,94.10
2018-12-19T16:38:57.741Z,94.02
2018-12-19T16:41:24.960Z,93.68
2018-12-19T16:43:52.180Z,94.46
2018-12-19T16:46:19.392Z,94.46
2018-12-19T16:48:46.604Z,94.06
2018-12-19T16:51:13.852Z,95.21
2018-12-19T16:53:41.096Z,93.50
2018-12-19T16:56:08.302Z,93.61
2018-12-19T16:58:35.566Z,93.48
2018-12-19T17:01:12.528Z,93.61
2018-12-19T17:03:52.332Z,94.53
2018-12-19T17:06:32.021Z,93.96
2018-12-19T17:09:16.204Z,93.31
2018-12-19T17:11:58.893Z,93.86
2018-12-19T17:14:45.241Z,93.93
2018-12-19T17:17:30.231Z,93.30
2018-12-19T17:20:10.230Z,94.05
2018-12-19T17:22:47.868Z,92.87
2018-12-19T17:25:15.128Z,92.12
2018-12-19T17:27:42.350Z,93.25
2018-12-19T17:30:09.562Z,93.19
2018-12-19T17:32:37.061Z,92.28
2018-12-19T17:35:04.740Z,92.95
2018-12-19T17:37:31.980Z,93.60
2018-12-19T17:39:59.325Z,93.02
2018-12-19T17:42:26.544Z,93.12
2018-12-19T17:44:53.764Z,94.05
2018-12-19T17:47:21.008Z,93.82
2018-12-19T17:49:49.836Z,94.00
2018-12-19T17:52:34.028Z,94.95
2018-12-19T17:55:01.280Z,95.10
2018-12-19T17:57:28.604Z,94.86
2018-12-19T17:59:55.945Z,93.89
2018-12-19T18:02:23.289Z,95.54
2018-12-19T18:04:50.496Z,95.91
2018-12-19T18:07:18.840Z,96.05
2018-12-19T18:09:46.154Z,95.68
2018-12-19T18:12:13.349Z,96.31
2018-12-19T18:14:40.686Z,96.60
2018-12-19T18:17:07.935Z,97.05
2018-12-19T18:19:35.150Z,96.80
2018-12-19T18:22:02.353Z,97.18
2018-12-19T18:24:29.569Z,97.56
2018-12-19T18:26:56.776Z,97.45
2018-12-19T18:29:24.117Z,97.64
2018-12-19T18:31:51.465Z,96.57
2018-12-19T18:34:18.689Z,96.30
2018-12-19T18:36:46.074Z,95.90
2018-12-19T18:39:13.277Z,96.24
2018-12-19T18:41:40.500Z,96.05
2018-12-19T18:44:07.877Z,95.72
2018-12-19T18:46:35.084Z,96.78
2018-12-19T18:49:02.307Z,96.28
2018-12-19T18:51:29.700Z,96.14
2018-12-19T18:53:56.936Z,95.73
2018-12-19T18:56:24.279Z,96.25
2018-12-19T19:00:20.617Z,96.48
2018-12-19T19:02:48.010Z,94.89
2018-12-19T19:05:16.291Z,95.52
2018-12-19T19:07:43.652Z,95.29
2018-12-19T19:10:10.949Z,95.88
2018-12-19T19:12:38.268Z,95.07
2018-12-19T19:15:06.156Z,95.03
2018-12-19T19:17:33.718Z,94.25
2018-12-19T19:20:01.048Z,94.60
2018-12-19T19:22:28.369Z,95.49
2018-12-19T19:24:56.136Z,94.30
2018-12-19T19:27:23.442Z,94.38
2018-12-19T19:29:50.644Z,93.53
2018-12-19T19:32:19.081Z,93.98
2018-12-19T19:34:46.276Z,94.70
2018-12-19T19:37:13.702Z,94.76
2018-12-19T19:39:40.952Z,94.54
2018-12-19T19:42:08.408Z,93.50
2018-12-19T19:44:35.605Z,93.78
2018-12-19T19:47:04.264Z,93.70
2018-12-19T19:49:31.614Z,93.70
2018-12-19T19:51:58.944Z,93.66
2018-12-19T19:54:26.188Z,93.99
2018-12-19T19:56:53.510Z,92.74
2018-12-19T19:59:21.753Z,93.06
2018-12-19T20:01:49.243Z,93.04
2018-12-19T20:04:16.448Z,93.11
2018-12-19T20:06:43.725Z,93.17
2018-12-19T20:09:10.994Z,94.13
2018-12-19T20:11:38.345Z,93.70
2018-12-19T20:14:05.732Z,92.55
2018-12-19T20:16:37.537Z,92.85
2018-12-19T20:19:04.756Z,92.93
2018-12-19T20:21:32.081Z,92.61
2018-12-19T20:23:59.301Z,92.76
2018-12-19T20:26:26.600Z,92.10
2018-12-19T20:28:53.797Z,92.04
2018-12-19T20:31:21.035Z,91.57
2018-12-19T20:33:48.745Z,91.91
2018-12-19T20:36:16.039Z,92.16
2018-12-19T20:38:43.513Z,91.11
2018-12-19T20:41:10.748Z,91.74
2018-12-19T20:43:40.108Z,90.51
2018-12-19T20:46:07.593Z,91.49
2018-12-19T20:48:35.071Z,90.45
2018-12-19T20:51:02.300Z,90.77
2018-12-19T20:53:29.913Z,91.93
2018-12-19T20:56:03.593Z,91.26
2018-12-19T20:58:26.366Z,91.99
2018-12-19T21:00:53.719Z,91.26
2018-12-19T21:03:21.149Z,91.83
2018-12-19T21:12:45.532Z,91.26
2018-12-19T21:15:12.949Z,90.89
2018-12-19T21:17:46.442Z,90.91
2018-12-19T21:20:13.801Z,91.63
2018-12-19T21:22:41.129Z,91.72
2018-12-19T21:25:09.800Z,91.03
2018-12-19T21:27:37.305Z,91.81
2018-12-19T21:30:06.225Z,91.43
2018-12-19T21:32:33.920Z,90.72
2018-12-19T21:35:01.152Z,91.20
2018-12-19T21:37:28.471Z,91.88
2018-12-19T21:39:56.813Z,91.86
2018-12-19T21:42:24.922Z,91.32
2018-12-19T21:44:52.391Z,90.93
2018-12-19T21:47:20.256Z,91.39
2018-12-19T21:49:47.673Z,91.66
2018-12-19T21:52:14.982Z,91.19
2018-12-19T21:54:42.321Z,91.61
2018-12-19T21:57:09.589Z,92.00
2018-12-19T21:59:36.932Z,91.80
2018-12-19T22:02:04.334Z,91.63
2018-12-19T22:04:31.932Z,91.76
2018-12-19T22:06:59.260Z,91.98
2018-12-19T22:09:26.638Z,92.27
2018-12-19T22:11:54.044Z,92.03
2018-12-19T22:14:21.369Z,92.12
2018-12-19T22:16:54.493Z,92.29
2018-12-19T22:19:21.795Z,92.20
2018-12-19T22:21:49.136Z,92.22
2018-12-19T22:24:16.478Z,92.92
2018-12-19T22:26:43.966Z,92.79
2018-12-19T22:29:12.336Z,92.79
2018-12-19T22:31:39.652Z,93.13
2018-12-19T22:34:07.099Z,93.41
2018-12-19T22:36:34.290Z,92.90
2018-12-19T22:39:01.546Z,92.81
2018-12-19T22:41:31.133Z,92.81
2018-12-19T22:43:58.447Z,93.37
2018-12-19T22:46:25.912Z,92.45
2018-12-19T22:48:53.147Z,93.42
2018-12-19T22:51:20.476Z,93.60
2018-12-19T22:53:47.849Z,92.88
2018-12-19T22:56:15.173Z,91.81
2018-12-19T22:58:42.559Z,92.82
2018-12-19T23:01:16.459Z,92.74
2018-12-19T23:04:06.273Z,92.91
2018-12-19T23:06:35.208Z,92.13
2018-12-19T23:09:04.644Z,93.06
2018-12-19T23:11:34.112Z,92.46
2018-12-19T23:14:03.143Z,93.03
2018-12-19T23:16:38.781Z,92.30
2018-12-19T23:19:12.062Z,92.15
2018-12-19T23:21:45.777Z,92.98
2018-12-19T23:24:19.500Z,92.12
2018-12-19T23:26:48.775Z,91.99
2018-12-19T23:29:18.059Z,93.16
2018-12-19T23:31:46.954Z,92.81
2018-12-19T23:34:14.326Z,93.96
2018-12-19T23:36:41.765Z,93.09
2018-12-19T23:39:09.214Z,93.35
2018-12-19T23:41:36.660Z,92.11
2018-12-19T23:44:03.908Z,93.34
2018-12-19T23:46:33.471Z,92.27
2018-12-19T23:49:00.853Z,93.72
2018-12-19T23:51:28.236Z,92.64
2018-12-19T23:53:55.643Z,93.70
2018-12-19T23:56:22.897Z,91.51
2018-12-19T23:58:51.172Z,93.27
